createdAt,value
2018-06-01T00:01:32.780Z,87.10
2018-06-01T00:04:00.410Z,86.30
2018-06-01T00:06:28.089Z,85.80
2018-06-01T00:08:55.724Z,85.80
2018-06-01T00:11:23.320Z,85.60
2018-06-01T00:13:50.954Z,85.80
2018-06-01T00:16:18.565Z,85.70
2018-06-01T00:18:46.968Z,89.60
2018-06-01T00:21:14.560Z,89.50
2018-06-01T00:23:42.148Z,89.90
2018-06-01T00:26:09.801Z,89.30
2018-06-01T00:28:37.397Z,89.30
2018-06-01T00:31:05.828Z,90.00
2018-06-01T00:33:33.453Z,90.00
2018-06-01T00:36:01.088Z,89.20
2018-06-01T00:38:29.488Z,89.40
2018-06-01T00:40:57.122Z,89.30
2018-06-01T00:43:25.536Z,88.60
2018-06-01T00:45:53.187Z,88.60
2018-06-01T00:48:20.839Z,89.20
2018-06-01T00:50:49.241Z,89.90
2018-06-01T00:53:16.893Z,89.90
2018-06-01T00:55:44.534Z,89.20
2018-06-01T00:58:12.910Z,87.40
2018-06-01T01:00:41.309Z,87.70
2018-06-01T01:03:08.956Z,87.70
2018-06-01T01:05:37.353Z,90.20
2018-06-01T01:08:04.957Z,90.20
2018-06-01T01:10:32.595Z,89.10
2018-06-01T01:13:00.238Z,88.20
2018-06-01T01:15:27.832Z,87.00
2018-06-01T01:17:55.456Z,87.00
2018-06-01T01:20:23.092Z,87.00
2018-06-01T01:22:51.457Z,87.30
2018-06-01T01:25:19.093Z,87.30
2018-06-01T01:27:46.716Z,87.50
2018-06-01T01:30:14.320Z,87.20
2018-06-01T01:32:41.961Z,86.80
2018-06-01T01:35:09.564Z,87.00
2018-06-01T01:37:37.210Z,87.40
2018-06-01T01:40:04.810Z,86.60
2018-06-01T01:42:32.452Z,85.90
2018-06-01T01:45:00.900Z,87.30
2018-06-01T01:47:28.540Z,87.20
2018-06-01T01:49:56.196Z,87.10
2018-06-01T01:52:23.821Z,86.80
2018-06-01T01:54:52.185Z,87.90
2018-06-01T01:57:20.233Z,87.90
2018-06-01T01:59:47.829Z,86.70
2018-06-01T02:02:16.251Z,87.90
2018-06-01T02:04:43.865Z,87.90
2018-06-01T02:07:11.501Z,89.60
2018-06-01T02:09:39.097Z,89.30
2018-06-01T02:12:07.505Z,87.50
2018-06-01T02:14:35.110Z,87.50
2018-06-01T02:17:02.718Z,88.60
2018-06-01T02:19:30.357Z,89.20
2018-06-01T02:21:58.756Z,89.60
2018-06-01T02:24:27.133Z,88.50
2018-06-01T02:26:54.789Z,88.40
2018-06-01T02:29:22.393Z,87.50
2018-06-01T02:31:50.041Z,86.70
2018-06-01T02:34:17.747Z,86.10
2018-06-01T02:36:45.365Z,86.20
2018-06-01T02:39:13.039Z,86.40
2018-06-01T02:41:40.717Z,86.70
2018-06-01T02:44:08.370Z,86.40
2018-06-01T02:46:36.018Z,85.60
2018-06-01T02:49:03.665Z,85.30
2018-06-01T02:51:31.341Z,85.50
2018-06-01T02:53:58.959Z,85.70
2018-06-01T02:56:27.378Z,85.80
2018-06-01T02:58:54.995Z,85.90
2018-06-01T03:01:23.541Z,85.80
2018-06-01T03:03:51.197Z,85.80
2018-06-01T03:06:18.805Z,85.70
2018-06-01T03:08:47.294Z,86.00
2018-06-01T03:11:14.941Z,86.00
2018-06-01T03:13:43.322Z,86.40
2018-06-01T03:16:10.978Z,86.30
2018-06-01T03:18:39.349Z,86.40
2018-06-01T03:21:06.998Z,86.40
2018-06-01T03:23:34.653Z,86.20
2018-06-01T03:26:02.301Z,86.30
2018-06-01T03:28:29.896Z,86.20
2018-06-01T03:30:57.542Z,87.10
2018-06-01T03:33:25.151Z,86.60
2018-06-01T03:35:52.807Z,86.80
2018-06-01T03:38:20.440Z,87.90
2018-06-01T03:40:48.089Z,88.20
2018-06-01T03:43:15.693Z,88.00
2018-06-01T03:45:43.345Z,87.60
2018-06-01T03:48:11.717Z,87.20
2018-06-01T03:50:40.135Z,87.20
2018-06-01T03:53:07.741Z,87.10
2018-06-01T03:55:36.153Z,86.60
2018-06-01T03:58:03.869Z,87.00
2018-06-01T04:00:31.477Z,86.90
2018-06-01T04:02:59.160Z,86.60
2018-06-01T04:05:26.774Z,86.60
2018-06-01T04:07:55.209Z,86.60
2018-06-01T04:10:22.846Z,86.60
2018-06-01T04:12:50.473Z,86.70
2018-06-01T04:15:18.910Z,86.80
2018-06-01T04:17:46.525Z,86.80
2018-06-01T04:20:14.909Z,86.60
2018-06-01T04:22:42.561Z,86.50
2018-06-01T04:25:10.942Z,86.60
2018-06-01T04:27:39.463Z,86.70
2018-06-01T04:30:07.062Z,86.60
2018-06-01T04:32:34.686Z,86.80
2018-06-01T04:35:02.330Z,86.60
2018-06-01T04:37:29.981Z,86.60
2018-06-01T04:39:57.617Z,86.60
2018-06-01T04:42:25.226Z,86.80
2018-06-01T04:44:52.888Z,87.10
2018-06-01T04:47:20.503Z,87.10
2018-06-01T04:49:48.941Z,87.20
2018-06-01T04:52:16.551Z,87.20
2018-06-01T04:54:44.979Z,86.10
2018-06-01T04:57:12.640Z,86.00
2018-06-01T04:59:40.253Z,85.70
2018-06-01T05:02:08.677Z,85.30
2018-06-01T05:04:36.336Z,85.30
2018-06-01T05:07:03.965Z,85.10
2018-06-01T05:09:31.610Z,85.30
2018-06-01T05:12:00.041Z,85.30
2018-06-01T05:14:27.706Z,85.20
2018-06-01T05:16:55.397Z,85.20
2018-06-01T05:19:23.014Z,85.20
2018-06-01T05:21:50.669Z,85.30
2018-06-01T05:24:18.300Z,85.50
2018-06-01T05:26:46.717Z,86.40
2018-06-01T05:29:14.351Z,86.40
2018-06-01T05:31:42.773Z,86.70
2018-06-01T05:34:10.434Z,86.80
2018-06-01T05:36:38.077Z,87.10
2018-06-01T05:39:06.545Z,87.50
2018-06-01T05:41:34.202Z,87.10
2018-06-01T05:44:01.826Z,87.20
2018-06-01T05:46:29.472Z,87.20
2018-06-01T05:48:57.082Z,87.20
2018-06-01T05:51:24.743Z,87.70
2018-06-01T05:53:53.273Z,87.00
2018-06-01T05:56:20.914Z,87.00
2018-06-01T05:58:48.533Z,86.30
2018-06-01T06:01:16.937Z,86.50
2018-06-01T06:03:44.586Z,86.50
2018-06-01T06:06:12.977Z,86.10
2018-06-01T06:08:40.626Z,86.00
2018-06-01T06:11:08.997Z,85.50
2018-06-01T06:13:37.491Z,84.90
2018-06-01T06:16:05.082Z,84.90
2018-06-01T06:18:33.502Z,82.60
2018-06-01T06:21:01.153Z,82.60
2018-06-01T06:23:28.761Z,82.80
2018-06-01T06:25:56.398Z,83.10
2018-06-01T06:28:24.774Z,82.70
2018-06-01T06:30:53.215Z,82.60
2018-06-01T06:33:20.826Z,82.60
2018-06-01T06:35:49.247Z,83.40
2018-06-01T06:38:16.853Z,83.40
2018-06-01T06:40:45.386Z,82.60
2018-06-01T06:43:13.017Z,82.60
2018-06-01T06:45:40.673Z,82.30
2018-06-01T06:48:09.047Z,83.10
2018-06-01T06:50:37.465Z,83.00
2018-06-01T06:53:05.109Z,83.00
2018-06-01T06:55:32.764Z,83.20
2018-06-01T06:58:00.422Z,82.50
2018-06-01T07:00:28.093Z,81.50
2018-06-01T07:02:55.705Z,81.10
2018-06-01T07:05:23.325Z,81.50
2018-06-01T07:07:50.980Z,80.70
2018-06-01T07:10:18.633Z,81.30
2018-06-01T07:12:46.287Z,79.80
2018-06-01T07:15:13.895Z,79.50
2018-06-01T07:17:41.574Z,79.00
2018-06-01T07:20:09.266Z,78.20
2018-06-01T07:22:37.663Z,76.90
2018-06-01T07:25:05.326Z,76.90
2018-06-01T07:27:32.989Z,75.50
2018-06-01T07:30:00.601Z,76.30
2018-06-01T07:32:28.212Z,74.00
2018-06-01T07:34:55.865Z,73.70
2018-06-01T07:37:23.475Z,73.70
2018-06-01T07:39:51.135Z,74.80
2018-06-01T07:42:18.784Z,75.20
2018-06-01T07:44:46.503Z,76.40
2018-06-01T07:47:14.921Z,74.10
2018-06-01T07:49:42.556Z,74.00
2018-06-01T07:52:10.185Z,73.00
2018-06-01T07:54:37.865Z,74.80
2018-06-01T07:57:06.260Z,73.50
2018-06-01T07:59:33.859Z,73.40
2018-06-01T08:02:01.502Z,72.80
2018-06-01T08:04:29.164Z,74.00
2018-06-01T08:06:56.810Z,72.50
2018-06-01T08:09:24.453Z,73.80
2018-06-01T08:11:52.868Z,71.40
2018-06-01T08:14:20.517Z,71.40
2018-06-01T08:16:48.136Z,69.90
2018-06-01T08:19:15.742Z,70.10
2018-06-01T08:21:43.372Z,69.70
2018-06-01T08:24:11.789Z,69.10
2018-06-01T08:26:39.385Z,68.90
2018-06-01T08:29:07.036Z,69.60
2018-06-01T08:31:34.705Z,67.80
2018-06-01T08:34:02.352Z,67.00
2018-06-01T08:36:30.046Z,65.60
2018-06-01T08:38:58.514Z,66.50
2018-06-01T08:41:26.134Z,66.50
2018-06-01T08:43:53.805Z,66.60
2018-06-01T08:46:21.512Z,65.60
2018-06-01T08:48:49.105Z,66.10
2018-06-01T08:51:16.731Z,63.70
2018-06-01T08:53:44.399Z,64.80
2018-06-01T08:56:12.785Z,62.20
2018-06-01T08:58:40.487Z,62.20
2018-06-01T09:01:08.138Z,64.30
2018-06-01T09:03:35.894Z,61.10
2018-06-01T09:06:03.554Z,59.90
2018-06-01T09:08:31.234Z,59.90
2018-06-01T09:10:58.919Z,60.20
2018-06-01T09:13:26.523Z,61.50
2018-06-01T09:15:54.204Z,58.50
2018-06-01T09:18:21.938Z,61.70
2018-06-01T09:20:49.581Z,59.40
2018-06-01T09:23:17.245Z,58.80
2018-06-01T09:25:44.873Z,60.40
2018-06-01T09:28:12.644Z,61.00
2018-06-01T09:30:40.252Z,60.00
2018-06-01T09:33:08.675Z,58.80
2018-06-01T09:35:36.350Z,58.80
2018-06-01T09:38:03.972Z,58.70
2018-06-01T09:40:31.626Z,59.00
2018-06-01T09:43:00.192Z,59.10
2018-06-01T09:45:27.833Z,59.00
2018-06-01T09:47:55.578Z,58.80
2018-06-01T09:50:23.394Z,58.60
2018-06-01T09:52:51.846Z,58.50
2018-06-01T09:55:19.515Z,58.50
2018-06-01T09:57:47.909Z,56.90
2018-06-01T10:00:16.390Z,58.40
2018-06-01T10:02:44.662Z,58.40
2018-06-01T10:05:12.313Z,58.70
2018-06-01T10:07:39.977Z,58.40
2018-06-01T10:10:13.242Z,58.30
2018-06-01T10:12:40.873Z,57.20
2018-06-01T10:15:08.530Z,58.10
2018-06-01T10:17:36.181Z,59.10
2018-06-01T10:20:03.803Z,59.50
2018-06-01T10:22:31.494Z,59.50
2018-06-01T10:25:00.685Z,60.20
2018-06-01T10:27:29.117Z,63.00
2018-06-01T10:29:56.780Z,63.10
2018-06-01T10:32:24.440Z,63.60
2018-06-01T10:34:52.125Z,61.60
2018-06-01T10:37:19.764Z,61.70
2018-06-01T10:39:47.386Z,59.00
2018-06-01T10:42:15.047Z,58.30
2018-06-01T10:44:42.679Z,56.80
2018-06-01T10:47:10.354Z,55.80
2018-06-01T10:49:38.804Z,56.30
2018-06-01T10:52:06.422Z,56.30
2018-06-01T10:54:34.082Z,56.10
2018-06-01T10:57:01.685Z,57.40
2018-06-01T10:59:29.309Z,55.10
2018-06-01T11:01:56.985Z,54.80
2018-06-01T11:04:24.602Z,55.40
2018-06-01T11:06:53.045Z,56.20
2018-06-01T11:09:20.702Z,56.20
2018-06-01T11:11:48.322Z,57.50
2018-06-01T11:14:15.981Z,58.50
2018-06-01T11:16:44.358Z,56.00
2018-06-01T11:19:12.025Z,56.10
2018-06-01T11:21:39.630Z,56.60
2018-06-01T11:24:07.306Z,53.90
2018-06-01T11:26:34.921Z,52.20
2018-06-01T11:29:02.541Z,53.90
2018-06-01T11:31:30.977Z,53.60
2018-06-01T11:33:58.610Z,53.60
2018-06-01T11:36:26.262Z,53.10
2018-06-01T11:38:54.634Z,50.90
2018-06-01T11:41:23.057Z,49.50
2018-06-01T11:43:50.687Z,49.40
2018-06-01T11:46:19.110Z,47.00
2018-06-01T11:48:46.723Z,47.00
2018-06-01T11:51:15.149Z,47.50
2018-06-01T11:53:42.765Z,47.50
2018-06-01T11:56:11.209Z,47.50
2018-06-01T11:58:38.863Z,47.50
2018-06-01T12:01:06.469Z,48.40
2018-06-01T12:03:34.895Z,49.70
2018-06-01T12:06:02.502Z,49.70
2018-06-01T12:08:30.967Z,55.00
2018-06-01T12:10:58.620Z,55.00
2018-06-01T12:13:27.165Z,56.20
2018-06-01T12:15:54.824Z,55.60
2018-06-01T12:18:22.434Z,58.00
2018-06-01T12:20:50.090Z,56.30
2018-06-01T12:23:17.776Z,56.20
2018-06-01T12:25:46.209Z,59.40
2018-06-01T12:28:13.874Z,59.40
2018-06-01T12:30:41.556Z,62.20
2018-06-01T12:33:09.189Z,63.00
2018-06-01T12:35:36.833Z,63.50
2018-06-01T12:38:04.472Z,66.40
2018-06-01T12:40:32.923Z,68.40
2018-06-01T12:43:00.554Z,68.40
2018-06-01T12:45:28.189Z,70.40
2018-06-01T12:47:55.816Z,70.70
2018-06-01T12:50:24.186Z,70.40
2018-06-01T12:52:51.821Z,70.30
2018-06-01T12:55:19.425Z,69.40
2018-06-01T12:57:47.836Z,73.60
2018-06-01T13:00:15.478Z,73.60
2018-06-01T13:02:43.117Z,73.60
2018-06-01T13:05:10.722Z,74.80
2018-06-01T13:07:38.379Z,77.50
2018-06-01T13:10:05.973Z,77.60
2018-06-01T13:12:33.605Z,80.00
2018-06-01T13:15:01.260Z,81.10
2018-06-01T13:17:28.865Z,80.40
2018-06-01T13:19:56.525Z,80.70
2018-06-01T13:22:24.135Z,82.10
2018-06-01T13:24:51.762Z,81.60
2018-06-01T13:27:19.361Z,82.20
2018-06-01T13:29:47.053Z,82.60
2018-06-01T13:32:14.680Z,83.60
2018-06-01T13:34:42.353Z,83.90
2018-06-01T13:37:10.018Z,84.70
2018-06-01T13:39:37.640Z,83.60
2018-06-01T13:42:05.283Z,84.40
2018-06-01T13:44:32.916Z,85.00
2018-06-01T13:47:00.562Z,84.90
2018-06-01T13:49:28.227Z,84.50
2018-06-01T13:51:55.899Z,84.30
2018-06-01T13:54:23.505Z,84.30
2018-06-01T13:56:51.892Z,85.30
2018-06-01T13:59:20.301Z,86.20
2018-06-01T14:01:47.905Z,86.10
2018-06-01T14:04:15.544Z,86.40
2018-06-01T14:06:43.176Z,86.60
2018-06-01T14:09:10.793Z,86.80
2018-06-01T14:11:38.436Z,86.40
2018-06-01T14:14:06.046Z,86.10
2018-06-01T14:16:34.589Z,85.60
2018-06-01T14:19:02.226Z,85.60
2018-06-01T14:21:29.881Z,85.60
2018-06-01T14:23:57.524Z,85.90
2018-06-01T14:26:25.177Z,85.80
2018-06-01T14:28:53.636Z,86.40
2018-06-01T14:31:22.148Z,85.50
2018-06-01T14:33:49.781Z,85.40
2018-06-01T14:36:18.189Z,85.60
2018-06-01T14:38:45.800Z,85.60
2018-06-01T14:41:14.238Z,87.30
2018-06-01T14:43:41.837Z,87.20
2018-06-01T14:46:09.481Z,87.50
2018-06-01T14:48:37.173Z,87.60
2018-06-01T14:51:04.880Z,87.90
2018-06-01T14:53:32.493Z,88.10
2018-06-01T14:56:00.171Z,88.20
2018-06-01T14:58:28.848Z,88.70
2018-06-01T15:00:57.446Z,88.20
2018-06-01T15:03:25.870Z,89.00
2018-06-01T15:05:53.471Z,89.10
2018-06-01T15:08:22.046Z,86.80
2018-06-01T15:10:49.648Z,85.50
2018-06-01T15:13:17.289Z,86.30
2018-06-01T15:15:44.876Z,86.80
2018-06-01T15:18:12.531Z,84.90
2018-06-01T15:20:40.130Z,84.60
2018-06-01T15:23:07.790Z,84.80
2018-06-01T15:25:35.436Z,85.70
2018-06-01T15:28:03.284Z,86.00
2018-06-01T15:30:30.924Z,86.90
2018-06-01T15:32:59.337Z,86.90
2018-06-01T15:35:27.130Z,86.80
2018-06-01T15:37:54.825Z,87.00
2018-06-01T15:40:22.424Z,86.00
2018-06-01T15:42:50.092Z,85.60
2018-06-01T15:45:17.699Z,85.00
2018-06-01T15:47:45.373Z,85.70
2018-06-01T15:50:13.749Z,85.10
2018-06-01T15:52:42.161Z,84.90
2018-06-01T15:55:09.952Z,85.00
2018-06-01T15:57:37.596Z,82.90
2018-06-01T16:00:05.244Z,81.90
2018-06-01T16:02:32.868Z,81.60
2018-06-01T16:05:00.517Z,81.00
2018-06-01T16:07:28.916Z,82.90
2018-06-01T16:09:56.560Z,83.10
2018-06-01T16:12:24.206Z,82.80
2018-06-01T16:14:51.806Z,83.40
2018-06-01T16:17:20.220Z,83.00
2018-06-01T16:19:47.885Z,83.00
2018-06-01T16:22:15.533Z,83.30
2018-06-01T16:24:43.169Z,84.80
2018-06-01T16:27:11.537Z,84.90
2018-06-01T16:29:40.007Z,84.80
2018-06-01T16:32:07.645Z,84.50
2018-06-01T16:34:35.290Z,84.40
2018-06-01T16:37:02.913Z,85.30
2018-06-01T16:39:31.338Z,83.90
2018-06-01T16:41:59.014Z,83.90
2018-06-01T16:44:26.817Z,83.90
2018-06-01T16:46:55.258Z,83.90
2018-06-01T16:49:22.888Z,83.80
2018-06-01T16:51:50.574Z,83.50
2018-06-01T16:54:18.599Z,83.40
2018-06-01T16:56:46.241Z,83.50
2018-06-01T16:59:13.845Z,83.80
2018-06-01T17:01:41.526Z,84.10
2018-06-01T17:04:09.198Z,85.00
2018-06-01T17:06:36.862Z,85.20
2018-06-01T17:09:04.568Z,85.40
2018-06-01T17:11:32.937Z,85.60
2018-06-01T17:14:00.566Z,85.50
2018-06-01T17:16:28.305Z,85.90
2018-06-01T17:18:56.246Z,86.50
2018-06-01T17:21:23.894Z,86.30
2018-06-01T17:23:51.534Z,86.70
2018-06-01T17:26:19.953Z,86.40
2018-06-01T17:28:48.367Z,86.90
2018-06-01T17:31:15.964Z,86.80
2018-06-01T17:33:43.592Z,86.90
2018-06-01T17:36:11.235Z,86.90
2018-06-01T17:38:38.887Z,86.80
2018-06-01T17:41:07.456Z,86.70
2018-06-01T17:43:35.823Z,86.70
2018-06-01T17:46:04.278Z,86.70
2018-06-01T17:48:31.884Z,86.50
2018-06-01T17:50:59.504Z,86.30
2018-06-01T17:53:27.145Z,86.40
2018-06-01T17:55:54.745Z,86.80
2018-06-01T17:58:22.428Z,87.20
2018-06-01T18:00:50.093Z,87.70
2018-06-01T18:03:17.732Z,87.40
2018-06-01T18:05:46.090Z,87.00
2018-06-01T18:08:13.768Z,87.00
2018-06-01T18:10:41.369Z,87.20
2018-06-01T18:13:08.977Z,87.00
2018-06-01T18:15:36.625Z,86.90
2018-06-01T18:18:04.220Z,87.10
2018-06-01T18:20:32.641Z,87.30
2018-06-01T18:23:00.249Z,87.30
2018-06-01T18:25:28.657Z,89.40
2018-06-01T18:27:56.291Z,89.30
2018-06-01T18:30:23.925Z,90.00
2018-06-01T18:32:51.614Z,90.30
2018-06-01T18:35:19.988Z,90.30
2018-06-01T18:37:47.697Z,90.30
2018-06-01T18:40:15.329Z,90.40
2018-06-01T18:42:43.734Z,89.70
2018-06-01T18:45:11.411Z,89.70
2018-06-01T18:47:39.032Z,89.50
2018-06-01T18:50:07.462Z,88.90
2018-06-01T18:52:35.073Z,88.90
2018-06-01T18:55:03.491Z,88.30
2018-06-01T18:57:31.249Z,88.30
2018-06-01T18:59:58.915Z,88.10
2018-06-01T19:02:26.582Z,88.10
2018-06-01T19:04:54.268Z,88.00
2018-06-01T19:07:21.912Z,87.80
2018-06-01T19:09:49.658Z,87.90
2018-06-01T19:12:17.344Z,88.20
2018-06-01T19:14:46.187Z,88.00
2018-06-01T19:17:13.805Z,88.50
2018-06-01T19:19:41.451Z,89.10
2018-06-01T19:22:09.044Z,89.30
2018-06-01T19:24:36.677Z,88.50
2018-06-01T19:27:04.304Z,89.00
2018-06-01T19:29:31.932Z,88.50
2018-06-01T19:32:00.296Z,86.90
2018-06-01T19:34:27.931Z,86.80
2018-06-01T19:36:55.525Z,86.10
2018-06-01T19:39:23.155Z,86.40
2018-06-01T19:41:50.792Z,85.40
2018-06-01T19:44:18.425Z,85.70
2018-06-01T19:46:46.795Z,85.70
2018-06-01T19:49:15.205Z,86.40
2018-06-01T19:51:42.840Z,86.20
2018-06-01T19:54:11.206Z,86.10
2018-06-01T19:56:38.837Z,86.10
2018-06-01T19:59:06.429Z,86.60
2018-06-01T20:01:34.318Z,86.30
2018-06-01T20:04:01.957Z,86.50
2018-06-01T20:06:29.548Z,87.80
2018-06-01T20:08:57.258Z,88.80
2018-06-01T20:11:24.895Z,88.30
2018-06-01T20:13:52.553Z,88.90
2018-06-01T20:16:20.198Z,89.00
2018-06-01T20:18:47.832Z,88.30
2018-06-01T20:21:15.470Z,88.50
2018-06-01T20:23:43.077Z,88.90
2018-06-01T20:26:10.731Z,90.50
2018-06-01T20:28:39.385Z,90.30
2018-06-01T20:31:07.042Z,90.30
2018-06-01T20:33:35.484Z,90.10
2018-06-01T20:36:03.082Z,90.10
2018-06-01T20:38:30.719Z,90.30
2018-06-01T20:40:58.356Z,90.30
2018-06-01T20:43:25.945Z,90.40
2018-06-01T20:45:53.590Z,90.30
2018-06-01T20:48:21.200Z,89.00
2018-06-01T20:50:48.969Z,89.60
2018-06-01T20:53:16.601Z,89.80
2018-06-01T20:55:44.244Z,89.70
2018-06-01T20:58:11.865Z,89.90
2018-06-01T21:00:40.256Z,89.50
2018-06-01T21:03:07.909Z,89.50
2018-06-01T21:05:36.265Z,90.00
2018-06-01T21:08:03.917Z,89.90
2018-06-01T21:10:31.537Z,88.60
2018-06-01T21:12:59.198Z,90.10
2018-06-01T21:15:26.893Z,89.90
2018-06-01T21:17:54.527Z,89.40
2018-06-01T21:20:22.204Z,89.20
2018-06-01T21:22:50.707Z,89.00
2018-06-01T21:25:18.302Z,89.00
2018-06-01T21:27:46.657Z,88.80
2018-06-01T21:30:14.307Z,88.90
2018-06-01T21:32:41.909Z,88.20
2018-06-01T21:35:09.546Z,87.20
2018-06-01T21:37:37.911Z,87.50
2018-06-01T21:40:05.577Z,87.50
2018-06-01T21:42:33.997Z,87.20
2018-06-01T21:45:01.589Z,87.30
2018-06-01T21:47:29.220Z,87.00
2018-06-01T21:49:56.853Z,87.40
2018-06-01T21:52:25.213Z,86.90
2018-06-01T21:54:52.855Z,86.90
2018-06-01T21:57:20.446Z,85.70
2018-06-01T21:59:48.871Z,85.70
2018-06-01T22:02:16.485Z,85.70
2018-06-01T22:04:44.896Z,86.60
2018-06-01T22:07:12.537Z,86.60
2018-06-01T22:09:40.892Z,87.70
2018-06-01T22:12:08.548Z,87.70
2018-06-01T22:14:36.144Z,88.30
2018-06-01T22:17:04.509Z,87.60
2018-06-01T22:19:32.949Z,86.20
2018-06-01T22:22:00.629Z,86.20
2018-06-01T22:24:28.273Z,87.80
2018-06-01T22:26:55.905Z,86.10
2018-06-01T22:29:23.533Z,88.00
2018-06-01T22:31:51.938Z,87.50
2018-06-01T22:34:19.541Z,87.50
2018-06-01T22:36:47.942Z,86.30
2018-06-01T22:39:15.536Z,86.20
2018-06-01T22:41:43.169Z,86.00
2018-06-01T22:44:10.760Z,84.70
2018-06-01T22:46:38.400Z,85.50
2018-06-01T22:49:06.801Z,87.20
2018-06-01T22:51:34.436Z,87.20
2018-06-01T22:54:02.832Z,85.50
2018-06-01T22:56:31.189Z,86.30
2018-06-01T22:58:58.816Z,86.10
2018-06-01T23:01:26.446Z,88.40
2018-06-01T23:03:54.043Z,86.80
2018-06-01T23:06:21.677Z,86.00
2018-06-01T23:08:49.324Z,85.20
2018-06-01T23:11:17.007Z,85.40
2018-06-01T23:13:44.660Z,84.80
2018-06-01T23:16:12.256Z,83.70
2018-06-01T23:18:39.885Z,84.30
2018-06-01T23:21:07.528Z,84.00
2018-06-01T23:23:35.116Z,84.10
2018-06-01T23:26:02.700Z,83.10
2018-06-01T23:28:30.317Z,84.60
2018-06-01T23:30:57.957Z,83.80
2018-06-01T23:33:26.348Z,83.40
2018-06-01T23:35:53.973Z,83.40
2018-06-01T23:38:21.585Z,83.80
2018-06-01T23:40:49.212Z,83.60
2018-06-01T23:43:17.564Z,83.30
2018-06-01T23:45:45.199Z,83.20
2018-06-01T23:48:12.849Z,83.10
2018-06-01T23:50:40.444Z,82.80
2018-06-01T23:53:08.037Z,82.60
2018-06-01T23:55:36.429Z,82.80
2018-06-01T23:58:04.016Z,83.80
